Terminal Aerodrome Forecast
Issued by NWS

Home | Current Version | Previous Version | Text Only | Print | Product List | Glossary On
Versions: 1 2 3 4 5 6 7 8 9 10 11 12 13 14 15 16 17 18 19 20 21 22 23 24 25 26 27 28 29 30 31 32 33 34
880
FTUS45 KGJT 252330
TAFASE
TAF
KASE 252330Z 2600/2624 20008G16KT P6SM FEW120 SCT250
     FM260200 21006KT P6SM SCT250
     FM260500 18006KT P6SM SCT250
     FM261100 15006KT P6SM SCT200
     FM261400 26005KT P6SM BKN200
     FM261600 33005KT P6SM VCSH SCT120 BKN200=

USA.gov is the U.S. government's official web portal to all federal, state and local government web resources and services.